LMO weather

Lismore - Mortimer Oval Helicopter Landing Site
Lismore, New South Wales, Australia

Public forecast

Using degrees Celsius for public forecast. Weather courtesy of forecast.io.

Closest aviation weather report (METAR) to Lismore - Mortimer Oval Helicopter Landing Site

Closest report is Lismore Airport, 1.8 nm (3.4 km) SW. Retrieved 2019/10/21 06:00 UTC (25 minutes ago):

YLIS 210600Z AUTO 12010KT 9999 // NCD ///// Q1023

Closest aviation forecast (TAF) to Lismore - Mortimer Oval Helicopter Landing Site

Forecast is more than 12 hours old.

Closest forecast is Gold Coast Airport, 40.4 nm (74.8 km) NNE. Retrieved 2019/10/20 18:00 UTC (12 hours ago):

TAF YBCG 201701Z 2018/2118 19010KT 9999 SCT030 SCT040 FM202300 14017KT 9999 SCT035 FM210900 21007KT 9999 -SHRA SCT025 SCT040